createdAt,value
2019-03-24T00:00:14.940Z,61.55
2019-03-24T00:02:44.373Z,61.49
2019-03-24T00:05:13.791Z,61.50
2019-03-24T00:07:43.169Z,61.43
2019-03-24T00:10:12.515Z,61.52
2019-03-24T00:12:41.886Z,61.44
2019-03-24T00:15:11.235Z,61.39
2019-03-24T00:17:40.599Z,61.42
2019-03-24T00:20:10.314Z,61.72
2019-03-24T00:22:39.861Z,62.05
2019-03-24T00:25:09.783Z,62.32
2019-03-24T00:27:39.129Z,62.25
2019-03-24T00:30:11.462Z,62.81
2019-03-24T00:32:40.823Z,62.94
2019-03-24T00:35:10.184Z,62.93
2019-03-24T00:37:39.635Z,63.04
2019-03-24T00:40:08.974Z,63.07
2019-03-24T00:42:38.328Z,62.71
2019-03-24T00:45:08.827Z,62.92
2019-03-24T00:47:38.187Z,62.92
2019-03-24T00:50:08.018Z,63.38
2019-03-24T00:52:37.426Z,63.45
2019-03-24T00:55:09.703Z,63.23
2019-03-24T00:57:39.073Z,63.18
2019-03-24T01:00:09.402Z,63.06
2019-03-24T01:02:39.100Z,62.89
2019-03-24T01:05:08.986Z,62.98
2019-03-24T01:07:38.331Z,62.92
2019-03-24T01:10:08.855Z,63.05
2019-03-24T01:12:38.200Z,63.21
2019-03-24T01:15:08.215Z,63.21
2019-03-24T01:17:38.899Z,63.55
2019-03-24T01:20:08.688Z,63.37
2019-03-24T01:22:38.065Z,63.40
2019-03-24T01:25:07.415Z,63.73
2019-03-24T01:27:36.797Z,63.58
2019-03-24T01:30:08.479Z,63.68
2019-03-24T01:32:37.829Z,63.89
2019-03-24T01:35:07.925Z,64.00
2019-03-24T01:37:37.341Z,63.95
2019-03-24T01:40:07.571Z,64.20
2019-03-24T01:42:36.946Z,64.21
2019-03-24T01:45:10.441Z,64.04
2019-03-24T01:47:39.842Z,64.09
2019-03-24T01:50:09.349Z,64.44
2019-03-24T01:52:38.727Z,64.35
2019-03-24T01:55:08.442Z,64.10
2019-03-24T01:57:37.786Z,64.40
2019-03-24T02:00:08.367Z,64.35
2019-03-24T02:02:37.723Z,64.29
2019-03-24T02:05:07.553Z,64.53
2019-03-24T02:07:36.891Z,64.91
2019-03-24T02:10:08.610Z,64.74
2019-03-24T02:12:38.012Z,64.65
2019-03-24T02:15:08.514Z,65.37
2019-03-24T02:17:37.889Z,64.95
2019-03-24T02:20:07.600Z,64.79
2019-03-24T02:22:37.019Z,64.93
2019-03-24T02:25:08.493Z,65.04
2019-03-24T02:27:37.825Z,65.17
2019-03-24T02:30:10.075Z,64.90
2019-03-24T02:32:39.483Z,65.02
2019-03-24T02:35:08.819Z,65.36
2019-03-24T02:37:38.209Z,65.66
2019-03-24T02:40:08.645Z,65.76
2019-03-24T02:42:38.042Z,66.22
2019-03-24T02:45:07.650Z,65.65
2019-03-24T02:47:36.992Z,66.17
2019-03-24T02:50:07.580Z,65.89
2019-03-24T02:52:36.926Z,66.16
2019-03-24T02:55:07.832Z,65.93
2019-03-24T02:57:37.202Z,66.41
2019-03-24T03:00:09.530Z,66.17
2019-03-24T03:02:38.908Z,66.11
2019-03-24T03:05:08.982Z,66.08
2019-03-24T03:07:38.352Z,66.32
2019-03-24T03:10:10.405Z,66.37
2019-03-24T03:12:39.038Z,66.43
2019-03-24T03:15:09.228Z,66.71
2019-03-24T03:17:38.644Z,66.69
2019-03-24T03:20:08.680Z,67.41
2019-03-24T03:22:38.089Z,67.36
2019-03-24T03:25:08.258Z,67.05
2019-03-24T03:27:38.372Z,66.99
2019-03-24T03:30:08.456Z,67.34
2019-03-24T03:32:37.851Z,67.32
2019-03-24T03:35:08.305Z,67.01
2019-03-24T03:37:38.003Z,67.04
2019-03-24T03:40:08.284Z,68.12
2019-03-24T03:42:39.459Z,68.46
2019-03-24T03:45:11.536Z,68.01
2019-03-24T03:47:41.144Z,68.00
2019-03-24T03:50:10.494Z,67.79
2019-03-24T03:52:39.853Z,67.64
2019-03-24T03:55:09.179Z,67.61
2019-03-24T03:57:38.640Z,68.24
2019-03-24T04:00:09.315Z,67.99
2019-03-24T04:02:38.652Z,68.21
2019-03-24T04:05:08.012Z,68.21
2019-03-24T04:07:37.358Z,68.04
2019-03-24T04:10:06.792Z,67.81
2019-03-24T04:12:36.149Z,67.91
2019-03-24T04:15:07.583Z,68.44
2019-03-24T04:17:36.928Z,68.05
2019-03-24T04:20:06.831Z,68.09
2019-03-24T04:22:36.180Z,68.15
2019-03-24T04:25:07.269Z,68.63
2019-03-24T04:27:36.671Z,68.32
2019-03-24T04:30:07.141Z,68.56
2019-03-24T04:32:36.484Z,68.51
2019-03-24T04:35:09.659Z,68.52
2019-03-24T04:37:39.004Z,68.59
2019-03-24T04:40:08.793Z,68.21
2019-03-24T04:42:38.174Z,68.42
2019-03-24T04:45:07.595Z,68.49
2019-03-24T04:47:36.932Z,68.37
2019-03-24T04:50:09.075Z,68.71
2019-03-24T04:52:37.700Z,68.74
2019-03-24T04:55:10.118Z,69.44
2019-03-24T04:57:39.472Z,68.84
2019-03-24T05:00:09.429Z,68.99
2019-03-24T05:02:38.768Z,68.98
2019-03-24T05:05:09.349Z,69.07
2019-03-24T05:07:39.258Z,69.07
2019-03-24T05:10:14.753Z,68.90
2019-03-24T05:12:44.090Z,68.91
2019-03-24T05:15:13.429Z,69.52
2019-03-24T05:17:42.804Z,69.94
2019-03-24T05:20:12.142Z,69.49
2019-03-24T05:22:41.496Z,69.20
2019-03-24T05:25:10.842Z,69.47
2019-03-24T05:27:40.189Z,69.53
2019-03-24T05:30:09.544Z,69.59
2019-03-24T05:32:38.879Z,69.77
2019-03-24T05:35:08.244Z,69.88
2019-03-24T05:37:37.586Z,69.28
2019-03-24T05:40:07.007Z,69.42
2019-03-24T05:42:36.366Z,69.60
2019-03-24T05:45:08.704Z,69.84
2019-03-24T05:47:38.080Z,69.87
2019-03-24T05:50:08.564Z,70.51
2019-03-24T05:52:37.917Z,70.30
2019-03-24T05:55:07.652Z,69.79
2019-03-24T05:57:37.001Z,69.64
2019-03-24T06:00:10.740Z,69.42
2019-03-24T06:02:40.090Z,69.85
2019-03-24T06:05:09.433Z,69.57
2019-03-24T06:07:38.805Z,69.39
2019-03-24T06:10:08.311Z,69.43
2019-03-24T06:12:37.683Z,69.37
2019-03-24T06:15:09.907Z,69.73
2019-03-24T06:17:47.343Z,69.84
2019-03-24T06:20:10.336Z,70.13
2019-03-24T06:22:39.679Z,70.23
2019-03-24T06:25:09.066Z,70.52
2019-03-24T06:27:38.406Z,69.99
2019-03-24T06:30:08.553Z,69.97
2019-03-24T06:32:37.919Z,69.86
2019-03-24T06:35:07.420Z,69.20
2019-03-24T06:37:37.166Z,68.74
2019-03-24T06:40:06.735Z,68.00
2019-03-24T06:42:36.086Z,67.47
2019-03-24T06:45:07.045Z,67.63
2019-03-24T06:47:36.448Z,67.26
2019-03-24T06:50:07.768Z,67.19
2019-03-24T06:52:37.187Z,67.14
2019-03-24T06:55:06.519Z,66.82
2019-03-24T06:57:35.874Z,67.03
2019-03-24T07:00:08.792Z,67.07
2019-03-24T07:02:38.166Z,66.83
2019-03-24T07:05:08.224Z,66.47
2019-03-24T07:07:37.560Z,66.20
2019-03-24T07:10:09.158Z,65.49
2019-03-24T07:12:38.676Z,65.65
2019-03-24T07:15:08.685Z,65.75
2019-03-24T07:17:38.100Z,66.19
2019-03-24T07:20:07.524Z,66.09
2019-03-24T07:22:36.903Z,65.62
2019-03-24T07:25:06.332Z,65.76
2019-03-24T07:27:35.698Z,65.70
2019-03-24T07:30:07.440Z,66.02
2019-03-24T07:32:36.785Z,65.69
2019-03-24T07:35:07.483Z,65.33
2019-03-24T07:37:37.265Z,65.58
2019-03-24T07:40:08.221Z,65.58
2019-03-24T07:42:37.569Z,65.20
2019-03-24T07:45:08.041Z,64.95
2019-03-24T07:47:37.413Z,64.69
2019-03-24T07:50:07.865Z,64.52
2019-03-24T07:52:37.223Z,64.10
2019-03-24T07:55:07.802Z,63.84
2019-03-24T07:57:37.249Z,64.07
2019-03-24T08:00:09.468Z,63.32
2019-03-24T08:02:38.091Z,63.34
2019-03-24T08:05:07.463Z,63.38
2019-03-24T08:07:36.807Z,63.77
2019-03-24T08:10:07.436Z,64.02
2019-03-24T08:12:36.848Z,63.68
2019-03-24T08:15:06.293Z,63.41
2019-03-24T08:17:35.727Z,62.46
2019-03-24T08:20:06.701Z,62.09
2019-03-24T08:22:36.073Z,61.41
2019-03-24T08:25:07.745Z,61.43
2019-03-24T08:27:37.083Z,61.58
2019-03-24T08:30:07.080Z,61.94
2019-03-24T08:32:36.422Z,61.82
2019-03-24T08:35:07.037Z,61.93
2019-03-24T08:37:37.340Z,60.54
2019-03-24T08:40:07.851Z,60.43
2019-03-24T08:42:37.230Z,60.52
2019-03-24T08:45:06.642Z,60.41
2019-03-24T08:47:36.036Z,60.04
2019-03-24T08:50:07.391Z,59.88
2019-03-24T08:52:36.744Z,59.60
2019-03-24T08:55:07.341Z,59.16
2019-03-24T08:57:36.753Z,58.97
2019-03-24T09:00:07.403Z,58.77
2019-03-24T09:02:36.769Z,58.71
2019-03-24T09:05:07.152Z,58.12
2019-03-24T09:07:36.527Z,57.80
2019-03-24T09:10:07.289Z,58.08
2019-03-24T09:12:36.665Z,57.34
2019-03-24T09:15:06.766Z,57.42
2019-03-24T09:17:36.149Z,57.05
2019-03-24T09:20:06.504Z,57.03
2019-03-24T09:22:35.850Z,57.30
2019-03-24T09:25:07.175Z,56.17
2019-03-24T09:27:36.595Z,56.55
2019-03-24T09:30:21.074Z,56.62
2019-03-24T09:32:50.495Z,56.75
2019-03-24T09:35:19.870Z,56.95
2019-03-24T09:37:49.286Z,56.54
2019-03-24T09:40:28.431Z,56.22
2019-03-24T09:42:59.408Z,55.57
2019-03-24T09:45:30.237Z,55.80
2019-03-24T09:47:59.832Z,55.62
2019-03-24T09:50:29.234Z,55.46
2019-03-24T09:52:58.570Z,55.08
2019-03-24T09:55:28.045Z,54.99
2019-03-24T10:00:28.776Z,55.54
2019-03-24T10:02:58.157Z,54.60
2019-03-24T10:05:27.504Z,54.70
2019-03-24T10:07:56.862Z,53.74
2019-03-24T10:10:28.418Z,53.70
2019-03-24T10:12:59.407Z,54.36
2019-03-24T10:15:28.787Z,53.97
2019-03-24T10:18:00.009Z,53.63
2019-03-24T10:20:29.388Z,53.44
2019-03-24T10:22:58.771Z,53.90
2019-03-24T10:25:28.867Z,54.05
2019-03-24T10:27:58.338Z,53.72
2019-03-24T10:30:27.691Z,52.63
2019-03-24T10:32:57.040Z,51.24
2019-03-24T10:35:26.414Z,51.97
2019-03-24T10:37:55.819Z,51.82
2019-03-24T10:40:28.838Z,51.94
2019-03-24T10:42:56.295Z,51.38
2019-03-24T10:45:25.651Z,50.80
2019-03-24T10:47:55.032Z,51.07
2019-03-24T10:50:24.388Z,51.45
2019-03-24T10:52:53.813Z,50.67
2019-03-24T10:55:23.142Z,50.11
2019-03-24T10:57:52.503Z,49.31
2019-03-24T11:00:39.965Z,48.66
2019-03-24T11:03:09.396Z,49.90
2019-03-24T11:05:38.848Z,49.58
2019-03-24T11:08:08.198Z,48.98
2019-03-24T11:10:37.545Z,48.52
2019-03-24T11:13:07.480Z,47.90
2019-03-24T11:15:36.830Z,47.75
2019-03-24T11:18:06.215Z,46.92
2019-03-24T11:20:35.564Z,47.21
2019-03-24T11:23:04.923Z,47.38
2019-03-24T11:25:34.284Z,47.38
2019-03-24T11:28:03.636Z,47.35
2019-03-24T11:30:33.012Z,47.07
2019-03-24T11:33:02.506Z,46.25
2019-03-24T11:35:31.855Z,46.38
2019-03-24T11:38:01.227Z,46.19
2019-03-24T11:40:30.574Z,46.15
2019-03-24T11:43:01.589Z,45.01
2019-03-24T11:45:30.930Z,45.38
2019-03-24T11:48:00.289Z,45.28
2019-03-24T11:50:29.650Z,45.71
2019-03-24T11:52:58.989Z,45.18
2019-03-24T11:55:28.431Z,46.09
2019-03-24T11:58:05.778Z,46.34
2019-03-24T12:00:34.669Z,46.35
2019-03-24T12:03:04.103Z,45.91
2019-03-24T12:05:33.454Z,46.48
2019-03-24T12:08:03.359Z,46.92
2019-03-24T12:10:32.716Z,46.36
2019-03-24T12:13:02.078Z,46.47
2019-03-24T12:15:31.425Z,46.22
2019-03-24T12:18:00.847Z,45.15
2019-03-24T12:20:30.199Z,44.90
2019-03-24T12:22:59.552Z,44.88
2019-03-24T12:25:28.934Z,44.87
2019-03-24T12:27:58.288Z,45.57
2019-03-24T12:30:27.642Z,45.86
2019-03-24T12:32:57.023Z,45.72
2019-03-24T12:35:26.374Z,45.75
2019-03-24T12:37:55.759Z,45.14
2019-03-24T12:40:25.097Z,44.96
2019-03-24T12:42:54.462Z,45.02
2019-03-24T12:45:23.808Z,45.44
2019-03-24T12:47:53.162Z,45.38
2019-03-24T12:50:30.974Z,45.14
2019-03-24T12:52:53.691Z,44.77
2019-03-24T12:55:23.040Z,44.20
2019-03-24T12:57:52.687Z,44.34
2019-03-24T13:00:36.646Z,44.00
2019-03-24T13:03:06.460Z,43.84
2019-03-24T13:05:35.836Z,43.81
2019-03-24T13:08:14.421Z,43.81
2019-03-24T13:10:44.418Z,43.74
2019-03-24T13:13:13.768Z,44.18
2019-03-24T13:15:43.145Z,44.11
2019-03-24T13:18:12.490Z,44.57
2019-03-24T13:20:41.941Z,44.41
2019-03-24T13:23:11.300Z,45.12
2019-03-24T13:25:40.641Z,44.81
2019-03-24T13:28:10.018Z,44.72
2019-03-24T13:30:40.986Z,44.60
2019-03-24T13:33:10.395Z,42.85
2019-03-24T13:35:39.732Z,41.94
2019-03-24T13:38:09.080Z,41.88
2019-03-24T13:40:38.450Z,41.14
2019-03-24T13:43:07.810Z,40.83
2019-03-24T13:45:37.255Z,40.05
2019-03-24T13:48:07.450Z,39.37
2019-03-24T13:50:36.820Z,38.90
2019-03-24T13:53:06.520Z,38.78
2019-03-24T13:55:35.861Z,39.45
2019-03-24T13:58:05.345Z,39.78
2019-03-24T14:00:34.691Z,40.05
2019-03-24T14:03:04.064Z,39.96
2019-03-24T14:05:33.420Z,40.85
2019-03-24T14:08:02.787Z,41.20
2019-03-24T14:10:32.155Z,41.95
2019-03-24T14:13:01.508Z,42.89
2019-03-24T14:15:30.859Z,43.31
2019-03-24T14:18:00.243Z,43.69
2019-03-24T14:20:29.598Z,43.97
2019-03-24T14:22:58.956Z,44.19
2019-03-24T14:25:28.326Z,44.65
2019-03-24T14:27:57.673Z,44.18
2019-03-24T14:30:42.633Z,43.98
2019-03-24T14:33:11.986Z,43.97
2019-03-24T14:35:42.186Z,43.58
2019-03-24T14:38:11.548Z,43.62
2019-03-24T14:40:40.890Z,43.31
2019-03-24T14:43:10.268Z,43.70
2019-03-24T14:45:39.621Z,43.65
2019-03-24T14:48:09.129Z,43.60
2019-03-24T14:50:40.158Z,43.53
2019-03-24T14:53:09.500Z,43.73
2019-03-24T14:55:38.856Z,43.16
2019-03-24T14:58:08.235Z,43.66
2019-03-24T15:00:43.010Z,43.55
2019-03-24T15:03:12.531Z,43.56
2019-03-24T15:05:41.884Z,43.88
2019-03-24T15:08:11.300Z,43.94
2019-03-24T15:10:40.738Z,44.09
2019-03-24T15:13:10.096Z,43.92
2019-03-24T15:15:40.173Z,44.42
2019-03-24T15:18:09.511Z,44.58
2019-03-24T15:20:38.959Z,44.25
2019-03-24T15:23:08.328Z,44.60
2019-03-24T15:25:37.740Z,44.60
2019-03-24T15:28:07.125Z,44.40
2019-03-24T15:30:36.479Z,44.64
2019-03-24T15:33:05.833Z,44.87
2019-03-24T15:35:35.216Z,45.00
2019-03-24T15:38:08.553Z,44.95
2019-03-24T15:40:35.677Z,45.10
2019-03-24T15:43:05.029Z,45.12
2019-03-24T15:45:34.370Z,44.65
2019-03-24T15:48:03.807Z,44.70
2019-03-24T15:50:33.154Z,44.80
2019-03-24T15:53:02.539Z,44.39
2019-03-24T15:55:31.883Z,44.84
2019-03-24T15:58:01.260Z,44.84
2019-03-24T16:00:47.446Z,45.14
2019-03-24T16:03:16.941Z,45.88
2019-03-24T16:05:46.318Z,46.40
2019-03-24T16:08:15.692Z,46.91
2019-03-24T16:10:45.026Z,47.35
2019-03-24T16:13:14.405Z,47.85
2019-03-24T16:15:43.773Z,48.12
2019-03-24T16:18:13.162Z,48.32
2019-03-24T16:20:42.512Z,48.42
2019-03-24T16:23:11.905Z,48.89
2019-03-24T16:25:41.264Z,48.31
2019-03-24T16:28:10.655Z,48.47
2019-03-24T16:30:40.996Z,48.49
2019-03-24T16:33:10.419Z,48.68
2019-03-24T16:35:39.772Z,48.94
2019-03-24T16:38:09.149Z,49.16
2019-03-24T16:40:38.506Z,48.70
2019-03-24T16:43:07.963Z,49.22
2019-03-24T16:45:37.312Z,49.10
2019-03-24T16:48:06.640Z,48.78
2019-03-24T16:50:36.033Z,48.36
2019-03-24T16:53:05.367Z,48.42
2019-03-24T16:55:34.733Z,48.88
2019-03-24T16:58:04.266Z,48.85
2019-03-24T17:00:33.624Z,49.11
2019-03-24T17:03:03.001Z,49.24
2019-03-24T17:05:32.352Z,49.08
2019-03-24T17:08:01.716Z,49.09
2019-03-24T17:10:31.084Z,49.20
2019-03-24T17:13:00.451Z,49.49
2019-03-24T17:15:29.816Z,49.36
2019-03-24T17:17:59.169Z,49.13
2019-03-24T17:20:28.954Z,49.02
2019-03-24T17:22:58.371Z,49.14
2019-03-24T17:25:27.725Z,47.96
2019-03-24T17:27:57.109Z,47.95
2019-03-24T17:30:26.540Z,48.08
2019-03-24T17:32:55.913Z,48.26
2019-03-24T17:35:25.258Z,48.14
2019-03-24T17:37:54.629Z,48.13
2019-03-24T17:40:23.996Z,48.23
2019-03-24T17:42:53.332Z,48.36
2019-03-24T17:45:22.705Z,48.79
2019-03-24T17:47:52.217Z,48.88
2019-03-24T17:50:21.572Z,48.92
2019-03-24T17:52:50.940Z,48.84
2019-03-24T17:55:27.709Z,49.07
2019-03-24T17:57:51.505Z,49.30
2019-03-24T18:00:36.704Z,49.48
2019-03-24T18:03:06.079Z,49.87
2019-03-24T18:05:35.436Z,49.68
2019-03-24T18:08:04.776Z,49.97
2019-03-24T18:10:34.171Z,50.11
2019-03-24T18:13:03.514Z,50.73
2019-03-24T18:15:32.928Z,50.23
2019-03-24T18:18:02.273Z,50.32
2019-03-24T18:20:38.203Z,50.61
2019-03-24T18:23:07.429Z,50.93
2019-03-24T18:25:36.789Z,51.22
2019-03-24T18:28:06.154Z,51.49
2019-03-24T18:30:35.595Z,51.88
2019-03-24T18:33:05.092Z,52.09
2019-03-24T18:35:34.454Z,52.27
2019-03-24T18:38:03.811Z,52.39
2019-03-24T18:40:33.183Z,52.19
2019-03-24T18:43:02.599Z,52.31
2019-03-24T18:45:31.955Z,52.64
2019-03-24T18:48:01.322Z,52.83
2019-03-24T18:50:30.691Z,53.10
2019-03-24T18:53:00.078Z,53.42
2019-03-24T18:55:29.425Z,53.58
2019-03-24T18:57:58.782Z,53.56
2019-03-24T19:00:28.173Z,53.67
2019-03-24T19:02:57.487Z,53.83
2019-03-24T19:05:26.875Z,53.93
2019-03-24T19:07:56.222Z,54.30
2019-03-24T19:10:25.553Z,54.38
2019-03-24T19:12:54.936Z,55.01
2019-03-24T19:15:24.348Z,55.03
2019-03-24T19:17:53.815Z,55.00
2019-03-24T19:20:23.165Z,54.95
2019-03-24T19:22:52.515Z,54.98
2019-03-24T19:25:21.869Z,55.06
2019-03-24T19:27:51.208Z,55.05
2019-03-24T19:30:25.494Z,55.25
2019-03-24T19:32:54.831Z,55.22
2019-03-24T19:35:24.181Z,55.27
2019-03-24T19:37:53.536Z,55.14
2019-03-24T19:40:28.929Z,55.01
2019-03-24T19:42:58.390Z,55.08
2019-03-24T19:45:27.729Z,54.79
2019-03-24T19:47:57.439Z,55.17
2019-03-24T19:50:26.952Z,54.79
2019-03-24T19:52:56.305Z,55.13
2019-03-24T19:55:25.700Z,55.02
2019-03-24T19:57:55.035Z,55.39
2019-03-24T20:00:24.452Z,55.29
2019-03-24T20:02:53.811Z,55.11
2019-03-24T20:05:26.868Z,55.17
2019-03-24T20:07:55.902Z,55.50
2019-03-24T20:10:25.254Z,55.47
2019-03-24T20:12:54.586Z,55.29
2019-03-24T20:15:23.954Z,55.24
2019-03-24T20:17:53.276Z,54.75
2019-03-24T20:20:22.654Z,54.48
2019-03-24T20:22:56.899Z,54.62
2019-03-24T20:25:23.068Z,54.25
2019-03-24T20:27:52.424Z,54.29
2019-03-24T20:30:21.753Z,54.43
2019-03-24T20:32:51.127Z,54.49
2019-03-24T20:35:20.475Z,54.07
2019-03-24T20:37:49.809Z,53.47
2019-03-24T20:40:19.170Z,53.63
2019-03-24T20:42:48.497Z,53.55
2019-03-24T20:45:17.865Z,53.34
2019-03-24T20:47:47.201Z,53.37
2019-03-24T20:50:18.449Z,53.06
2019-03-24T20:52:47.808Z,52.98
2019-03-24T20:55:17.145Z,52.94
2019-03-24T20:57:46.517Z,52.75
2019-03-24T21:00:17.482Z,52.95
2019-03-24T21:02:46.816Z,52.99
2019-03-24T21:05:16.210Z,53.18
2019-03-24T21:07:45.561Z,53.18
2019-03-24T21:10:14.937Z,53.30
2019-03-24T21:12:44.270Z,53.46
2019-03-24T21:15:13.596Z,53.51
2019-03-24T21:17:42.960Z,53.47
2019-03-24T21:20:12.294Z,53.67
2019-03-24T21:22:41.668Z,53.79
2019-03-24T21:25:11.763Z,54.09
2019-03-24T21:27:41.098Z,54.21
2019-03-24T21:30:11.575Z,54.45
2019-03-24T21:32:40.920Z,54.56
2019-03-24T21:35:10.273Z,54.63
2019-03-24T21:37:39.611Z,54.69
2019-03-24T21:40:08.950Z,55.00
2019-03-24T21:42:38.299Z,55.12
2019-03-24T21:45:08.854Z,55.09
2019-03-24T21:47:38.226Z,54.96
2019-03-24T21:50:08.117Z,54.56
2019-03-24T21:52:37.450Z,54.64
2019-03-24T21:55:07.283Z,54.59
2019-03-24T21:57:36.687Z,54.87
2019-03-24T22:00:09.237Z,54.90
2019-03-24T22:02:38.587Z,54.83
2019-03-24T22:05:07.967Z,54.74
2019-03-24T22:07:37.350Z,54.73
2019-03-24T22:10:07.237Z,54.42
2019-03-24T22:12:36.601Z,54.43
2019-03-24T22:15:09.227Z,54.23
2019-03-24T22:17:38.544Z,53.99
2019-03-24T22:20:08.140Z,53.85
2019-03-24T22:22:37.475Z,53.66
2019-03-24T22:25:07.464Z,53.37
2019-03-24T22:27:36.801Z,53.25
2019-03-24T22:30:08.191Z,53.13
2019-03-24T22:32:37.543Z,52.58
2019-03-24T22:35:07.540Z,52.41
2019-03-24T22:37:36.933Z,51.79
2019-03-24T22:40:08.167Z,51.13
2019-03-24T22:42:37.505Z,50.78
2019-03-24T22:45:07.045Z,50.49
2019-03-24T22:47:36.360Z,50.26
2019-03-24T22:50:08.976Z,49.93
2019-03-24T22:52:38.783Z,49.73
2019-03-24T22:55:08.697Z,49.73
2019-03-24T22:57:38.089Z,49.57
2019-03-24T23:00:14.901Z,49.80
2019-03-24T23:02:44.425Z,50.09
2019-03-24T23:05:13.750Z,50.36
2019-03-24T23:07:43.137Z,50.68
2019-03-24T23:10:12.545Z,50.63
2019-03-24T23:12:41.893Z,50.70
2019-03-24T23:15:12.932Z,50.65
2019-03-24T23:17:42.456Z,51.06
2019-03-24T23:20:11.908Z,51.27
2019-03-24T23:22:41.240Z,51.74
2019-03-24T23:25:10.582Z,51.52
2019-03-24T23:27:39.930Z,51.54
2019-03-24T23:30:09.337Z,51.46
2019-03-24T23:32:38.716Z,51.48
2019-03-24T23:35:08.057Z,51.53
2019-03-24T23:37:37.404Z,51.33
2019-03-24T23:40:07.311Z,51.30
2019-03-24T23:42:36.715Z,51.40
2019-03-24T23:45:10.286Z,51.40
2019-03-24T23:47:40.188Z,51.58
2019-03-24T23:50:09.531Z,51.59
2019-03-24T23:52:38.885Z,51.76
2019-03-24T23:55:08.221Z,52.08
2019-03-24T23:57:37.583Z,52.46
